Terminal Aerodrome Forecast
Issued by NWS Houston/Galveston, TX

Current Version | Previous Version | Text Only | Print | Product List | Glossary On
Versions: 1 2 3 4 5 6 7 8 9 10 11 12 13 14 15 16 17 18 19 20 21 22 23 24 25 26 27 28 29 30 31 32 33 34 35 36 37 38 39 40 41 42 43 44 45
000
FTUS44 KHGX 010303 AAA
TAFCLL
TAF AMD
KCLL 010303Z 0103/0124 13012KT 6SM -RA BR OVC012
      TEMPO 0103/0105 5SM BR BKN008
     FM010500 15012KT 5SM -RA BR OVC008
     FM010800 16008KT 5SM BR OVC010
     FM011500 22009KT P6SM OVC015
     FM012000 33012G20KT P6SM VCSH BKN025 OVC050=

USA.gov is the U.S. government's official web portal to all federal, state and local government web resources and services.